createdAt,value
2023-01-15T00:01:27.405Z,69.77
2023-01-15T00:04:03.950Z,69.62
2023-01-15T00:06:40.258Z,69.44
2023-01-15T00:09:17.931Z,69.27
2023-01-15T00:11:51.377Z,68.92
2023-01-15T00:14:25.020Z,69.17
2023-01-15T00:16:59.055Z,68.83
2023-01-15T00:19:32.794Z,69.00
2023-01-15T00:22:06.579Z,68.92
2023-01-15T00:24:57.743Z,68.67
2023-01-15T00:27:41.743Z,68.81
2023-01-15T00:30:17.698Z,68.89
2023-01-15T00:32:51.294Z,68.78
2023-01-15T00:35:26.681Z,68.74
2023-01-15T00:38:00.817Z,68.81
2023-01-15T00:40:34.327Z,68.77
2023-01-15T00:43:08.551Z,68.84
2023-01-15T00:45:43.033Z,68.91
2023-01-15T00:48:16.978Z,68.91
2023-01-15T00:50:52.262Z,68.90
2023-01-15T00:53:26.089Z,68.83
2023-01-15T00:56:00.189Z,68.76
2023-01-15T00:58:35.984Z,68.94
2023-01-15T01:01:10.332Z,68.88
2023-01-15T01:03:49.208Z,68.95
2023-01-15T01:06:23.965Z,68.76
2023-01-15T01:08:57.531Z,68.79
2023-01-15T01:11:34.709Z,68.85
2023-01-15T01:14:08.602Z,68.97
2023-01-15T01:16:43.887Z,69.07
2023-01-15T01:19:20.402Z,69.11
2023-01-15T01:21:55.113Z,69.02
2023-01-15T01:24:28.680Z,69.19
2023-01-15T01:27:02.278Z,69.10
2023-01-15T01:29:35.731Z,69.18
2023-01-15T01:32:10.445Z,69.15
2023-01-15T01:34:44.448Z,69.15
2023-01-15T01:37:17.962Z,69.16
2023-01-15T01:39:52.963Z,69.15
2023-01-15T01:42:27.135Z,69.23
2023-01-15T01:45:14.426Z,69.29
2023-01-15T01:47:49.173Z,69.20
2023-01-15T01:50:23.457Z,69.14
2023-01-15T01:53:06.112Z,68.97
2023-01-15T01:55:40.710Z,68.97
2023-01-15T01:58:16.591Z,68.90
2023-01-15T02:00:52.607Z,68.95
2023-01-15T02:03:32.982Z,68.97
2023-01-15T02:06:11.803Z,69.11
2023-01-15T02:08:45.694Z,69.17
2023-01-15T02:11:21.957Z,69.21
2023-01-15T02:14:01.384Z,69.36
2023-01-15T02:16:42.139Z,69.44
2023-01-15T02:19:29.758Z,69.54
2023-01-15T02:22:13.432Z,69.57
2023-01-15T02:24:59.306Z,69.46
2023-01-15T02:27:34.334Z,69.32
2023-01-15T02:30:15.945Z,69.24
2023-01-15T02:33:02.792Z,69.15
2023-01-15T02:35:38.729Z,68.95
2023-01-15T02:38:17.163Z,69.12
2023-01-15T02:40:55.641Z,69.02
2023-01-15T02:43:36.444Z,69.04
2023-01-15T02:46:11.585Z,68.93
2023-01-15T02:48:47.872Z,68.86
2023-01-15T02:51:25.817Z,68.80
2023-01-15T02:54:04.066Z,68.88
2023-01-15T02:56:42.258Z,68.84
2023-01-15T02:59:19.948Z,68.68
2023-01-15T03:01:59.098Z,68.72
2023-01-15T03:04:39.540Z,68.74
2023-01-15T03:07:21.125Z,68.75
2023-01-15T03:09:56.427Z,68.79
2023-01-15T03:12:58.343Z,68.73
2023-01-15T03:15:59.033Z,68.47
2023-01-15T03:18:37.715Z,68.48
2023-01-15T03:21:15.227Z,68.45
2023-01-15T03:23:54.268Z,68.31
2023-01-15T03:26:29.267Z,68.34
2023-01-15T03:29:06.168Z,68.41
2023-01-15T03:31:40.674Z,68.36
2023-01-15T03:34:14.916Z,68.34
2023-01-15T03:36:49.927Z,68.21
2023-01-15T03:39:25.171Z,68.10
2023-01-15T03:42:18.364Z,68.01
2023-01-15T03:45:03.032Z,67.96
2023-01-15T03:47:48.198Z,68.05
2023-01-15T03:50:34.450Z,68.14
2023-01-15T03:53:17.869Z,68.02
2023-01-15T03:56:17.960Z,67.89
2023-01-15T03:59:00.276Z,67.96
2023-01-15T04:01:44.419Z,67.84
2023-01-15T04:04:19.735Z,67.87
2023-01-15T04:06:54.226Z,67.78
2023-01-15T04:09:29.157Z,67.87
2023-01-15T04:12:05.950Z,68.02
2023-01-15T04:14:44.207Z,67.92
2023-01-15T04:17:23.855Z,67.83
2023-01-15T04:19:58.356Z,67.99
2023-01-15T04:22:32.521Z,67.87
2023-01-15T04:25:07.016Z,67.76
2023-01-15T04:27:40.600Z,67.67
2023-01-15T04:30:17.706Z,67.59
2023-01-15T04:32:53.867Z,67.67
2023-01-15T04:35:27.531Z,67.50
2023-01-15T04:38:02.200Z,67.42
2023-01-15T04:40:53.759Z,67.49
2023-01-15T04:43:45.252Z,67.51
2023-01-15T04:46:22.286Z,67.57
2023-01-15T04:48:56.329Z,67.50
2023-01-15T04:51:30.114Z,67.47
2023-01-15T04:54:05.870Z,67.21
2023-01-15T04:56:44.035Z,67.35
2023-01-15T04:59:18.588Z,67.17
2023-01-15T05:02:03.101Z,67.19
2023-01-15T05:04:39.195Z,66.90
2023-01-15T05:07:13.213Z,66.94
2023-01-15T05:09:47.944Z,66.77
2023-01-15T05:12:21.628Z,66.64
2023-01-15T05:14:55.076Z,66.60
2023-01-15T05:17:28.483Z,66.45
2023-01-15T05:20:02.425Z,66.42
2023-01-15T05:22:36.583Z,66.25
2023-01-15T05:25:10.891Z,66.37
2023-01-15T05:27:45.057Z,66.14
2023-01-15T05:30:19.820Z,66.04
2023-01-15T05:32:53.562Z,66.00
2023-01-15T05:35:27.147Z,65.82
2023-01-15T05:38:00.642Z,65.88
2023-01-15T05:40:34.141Z,65.85
2023-01-15T05:43:08.827Z,65.87
2023-01-15T05:45:42.420Z,65.45
2023-01-15T05:48:16.345Z,65.44
2023-01-15T05:50:49.951Z,65.39
2023-01-15T05:53:23.660Z,65.32
2023-01-15T05:55:57.049Z,65.16
2023-01-15T05:58:30.967Z,64.81
2023-01-15T06:01:07.628Z,65.15
2023-01-15T06:03:42.246Z,65.28
2023-01-15T06:06:19.172Z,65.35
2023-01-15T06:08:52.974Z,65.28
2023-01-15T06:11:26.500Z,65.70
2023-01-15T06:14:00.523Z,66.40
2023-01-15T06:16:34.639Z,66.88
2023-01-15T06:19:09.553Z,67.24
2023-01-15T06:21:43.459Z,67.46
2023-01-15T06:24:18.399Z,67.42
2023-01-15T06:26:52.229Z,67.54
2023-01-15T06:29:26.069Z,67.31
2023-01-15T06:31:59.680Z,67.27
2023-01-15T06:34:33.673Z,67.46
2023-01-15T06:37:07.834Z,67.29
2023-01-15T06:39:41.522Z,67.11
2023-01-15T06:42:32.252Z,67.25
2023-01-15T06:45:22.651Z,67.18
2023-01-15T06:47:56.476Z,68.07
2023-01-15T06:50:30.323Z,68.90
2023-01-15T06:53:04.220Z,69.41
2023-01-15T06:55:37.774Z,70.45
2023-01-15T06:58:11.547Z,71.64
2023-01-15T07:00:47.385Z,72.89
2023-01-15T07:03:21.285Z,74.94
2023-01-15T07:05:54.696Z,76.27
2023-01-15T07:08:29.477Z,77.37
2023-01-15T07:11:08.201Z,78.57
2023-01-15T07:13:42.167Z,79.58
2023-01-15T07:16:28.822Z,80.18
2023-01-15T07:19:02.730Z,80.71
2023-01-15T07:21:36.821Z,81.03
2023-01-15T07:24:12.464Z,81.11
2023-01-15T07:26:47.188Z,81.03
2023-01-15T07:29:21.032Z,80.95
2023-01-15T07:31:55.755Z,80.68
2023-01-15T07:34:29.258Z,80.87
2023-01-15T07:37:02.963Z,80.47
2023-01-15T07:39:36.720Z,80.23
2023-01-15T07:42:29.089Z,80.01
2023-01-15T07:45:20.193Z,79.74
2023-01-15T07:48:27.728Z,79.42
2023-01-15T07:51:02.182Z,79.25
2023-01-15T07:53:35.988Z,79.45
2023-01-15T07:56:10.582Z,79.22
2023-01-15T07:58:49.810Z,79.39
2023-01-15T08:01:23.901Z,79.32
2023-01-15T08:03:57.870Z,79.36
2023-01-15T08:06:31.491Z,79.38
2023-01-15T08:09:05.855Z,79.72
2023-01-15T08:11:57.402Z,79.69
2023-01-15T08:14:48.840Z,79.98
2023-01-15T08:17:22.644Z,80.06
2023-01-15T08:19:56.286Z,80.20
2023-01-15T08:22:30.176Z,80.12
2023-01-15T08:25:04.126Z,80.48
2023-01-15T08:27:37.835Z,80.65
2023-01-15T08:30:15.224Z,80.58
2023-01-15T08:32:49.028Z,80.56
2023-01-15T08:35:22.918Z,80.75
2023-01-15T08:37:56.694Z,80.89
2023-01-15T08:40:30.612Z,80.92
2023-01-15T08:43:04.309Z,80.98
2023-01-15T08:45:38.453Z,80.95
2023-01-15T08:48:12.299Z,81.15
2023-01-15T08:50:46.217Z,81.04
2023-01-15T08:53:20.625Z,81.77
2023-01-15T08:55:54.702Z,82.71
2023-01-15T08:58:28.950Z,82.88
2023-01-15T09:01:08.804Z,82.94
2023-01-15T09:03:42.992Z,83.24
2023-01-15T09:06:17.041Z,83.36
2023-01-15T09:08:50.829Z,83.24
2023-01-15T09:11:24.695Z,83.24
2023-01-15T09:13:58.595Z,83.28
2023-01-15T09:16:33.381Z,83.51
2023-01-15T09:19:08.032Z,83.46
2023-01-15T09:21:41.727Z,83.68
2023-01-15T09:24:15.712Z,83.92
2023-01-15T09:26:49.384Z,84.22
2023-01-15T09:29:23.002Z,84.36
2023-01-15T09:31:57.016Z,84.77
2023-01-15T09:34:30.436Z,85.03
2023-01-15T09:37:03.984Z,84.80
2023-01-15T09:39:38.760Z,84.78
2023-01-15T09:42:30.568Z,85.23
2023-01-15T09:45:18.795Z,85.00
2023-01-15T09:48:18.154Z,84.97
2023-01-15T09:51:07.711Z,85.22
2023-01-15T09:54:20.476Z,85.85
2023-01-15T09:56:56.196Z,86.61
2023-01-15T09:59:36.521Z,86.68
2023-01-15T10:02:21.976Z,86.86
2023-01-15T10:05:02.661Z,87.18
2023-01-15T10:07:43.325Z,87.13
2023-01-15T10:10:21.599Z,87.28
2023-01-15T10:13:02.480Z,87.19
2023-01-15T10:15:43.020Z,87.04
2023-01-15T10:18:20.708Z,87.16
2023-01-15T10:21:03.538Z,87.44
2023-01-15T10:23:45.724Z,87.55
2023-01-15T10:26:33.645Z,87.38
2023-01-15T10:29:16.216Z,87.15
2023-01-15T10:32:02.689Z,87.14
2023-01-15T10:35:06.438Z,87.20
2023-01-15T10:37:44.992Z,86.99
2023-01-15T10:40:33.766Z,86.87
2023-01-15T10:43:14.773Z,86.91
2023-01-15T10:45:53.042Z,86.83
2023-01-15T10:48:32.652Z,86.60
2023-01-15T10:51:15.932Z,86.60
2023-01-15T10:53:53.961Z,86.93
2023-01-15T10:56:37.429Z,87.05
2023-01-15T10:59:18.426Z,87.03
2023-01-15T11:01:55.774Z,87.09
2023-01-15T11:04:33.481Z,87.10
2023-01-15T11:07:11.397Z,87.00
2023-01-15T11:09:45.994Z,87.19
2023-01-15T11:12:43.453Z,87.38
2023-01-15T11:15:45.178Z,87.58
2023-01-15T11:18:46.524Z,87.75
2023-01-15T11:21:23.240Z,88.05
2023-01-15T11:24:00.228Z,88.52
2023-01-15T11:26:35.891Z,88.63
2023-01-15T11:29:24.416Z,88.81
2023-01-15T11:31:58.247Z,88.82
2023-01-15T11:34:32.302Z,88.94
2023-01-15T11:37:09.186Z,88.88
2023-01-15T11:39:53.670Z,89.01
2023-01-15T11:42:45.289Z,89.07
2023-01-15T11:45:39.802Z,89.19
2023-01-15T11:48:38.117Z,89.05
2023-01-15T11:51:15.617Z,88.97
2023-01-15T11:53:52.237Z,89.00
2023-01-15T11:56:31.759Z,88.86
2023-01-15T11:59:15.141Z,88.70
2023-01-15T12:01:59.796Z,88.69
2023-01-15T12:04:47.018Z,88.59
2023-01-15T12:07:24.672Z,88.09
2023-01-15T12:10:19.503Z,87.95
2023-01-15T12:13:08.017Z,87.86
2023-01-15T12:15:44.429Z,87.46
2023-01-15T12:18:51.921Z,87.58
2023-01-15T12:21:51.534Z,87.51
2023-01-15T12:24:51.609Z,87.15
2023-01-15T12:27:37.932Z,86.50
2023-01-15T12:30:21.253Z,86.68
2023-01-15T12:33:02.636Z,85.94
2023-01-15T12:35:39.804Z,85.66
2023-01-15T12:38:23.261Z,85.11
2023-01-15T12:41:02.291Z,83.83
2023-01-15T12:43:53.311Z,84.32
2023-01-15T12:46:33.055Z,83.39
2023-01-15T12:49:16.564Z,83.43
2023-01-15T12:51:57.058Z,82.67
2023-01-15T12:54:38.311Z,81.84
2023-01-15T12:57:18.360Z,81.24
2023-01-15T12:59:56.094Z,80.90
2023-01-15T13:02:37.843Z,80.15
2023-01-15T13:05:22.538Z,80.03
2023-01-15T13:08:03.295Z,79.04
2023-01-15T13:10:37.368Z,77.92
2023-01-15T13:13:19.653Z,77.49
2023-01-15T13:16:14.525Z,76.54
2023-01-15T13:19:06.239Z,75.65
2023-01-15T13:21:42.979Z,75.78
2023-01-15T13:24:36.999Z,75.25
2023-01-15T13:27:27.692Z,75.34
2023-01-15T13:30:23.429Z,76.03
2023-01-15T13:33:03.178Z,75.13
2023-01-15T13:35:44.376Z,73.66
2023-01-15T13:38:22.218Z,74.11
2023-01-15T13:40:58.483Z,73.43
2023-01-15T13:43:39.660Z,72.62
2023-01-15T13:46:21.478Z,72.89
2023-01-15T13:48:56.107Z,72.29
2023-01-15T13:51:38.164Z,71.81
2023-01-15T13:54:17.255Z,70.89
2023-01-15T13:56:51.135Z,69.23
2023-01-15T13:59:44.550Z,70.28
2023-01-15T14:02:30.372Z,69.90
2023-01-15T14:05:26.640Z,69.55
2023-01-15T14:08:02.231Z,68.73
2023-01-15T14:10:43.597Z,67.95
2023-01-15T14:13:45.107Z,67.33
2023-01-15T14:16:29.612Z,68.14
2023-01-15T14:19:31.772Z,68.04
2023-01-15T14:22:21.794Z,67.49
2023-01-15T14:25:21.756Z,68.00
2023-01-15T14:28:09.523Z,67.65
2023-01-15T14:31:08.074Z,67.21
2023-01-15T14:33:55.590Z,67.13
2023-01-15T14:36:37.303Z,67.42
2023-01-15T14:39:39.414Z,67.51
2023-01-15T14:42:36.959Z,66.82
2023-01-15T14:45:27.624Z,67.10
2023-01-15T14:48:03.498Z,67.03
2023-01-15T14:50:40.718Z,66.58
2023-01-15T14:53:36.738Z,66.74
2023-01-15T14:56:21.298Z,66.19
2023-01-15T14:59:02.114Z,66.30
2023-01-15T15:01:47.898Z,66.56
2023-01-15T15:04:36.353Z,66.62
2023-01-15T15:07:16.239Z,65.98
2023-01-15T15:09:55.747Z,66.13
2023-01-15T15:12:40.134Z,66.09
2023-01-15T15:15:18.855Z,66.35
2023-01-15T15:17:59.073Z,65.10
2023-01-15T15:20:45.993Z,64.70
2023-01-15T15:23:29.225Z,65.24
2023-01-15T15:26:05.930Z,65.58
2023-01-15T15:28:40.650Z,64.62
2023-01-15T15:31:16.388Z,65.26
2023-01-15T15:33:50.467Z,65.36
2023-01-15T15:36:27.998Z,65.30
2023-01-15T15:39:04.053Z,65.09
2023-01-15T15:41:57.703Z,64.51
2023-01-15T15:45:00.136Z,64.85
2023-01-15T15:47:59.576Z,65.08
2023-01-15T15:50:39.504Z,64.71
2023-01-15T15:53:18.738Z,65.14
2023-01-15T15:55:53.610Z,65.41
2023-01-15T15:58:33.957Z,65.74
2023-01-15T16:01:13.143Z,66.17
2023-01-15T16:03:52.811Z,66.54
2023-01-15T16:06:29.071Z,66.79
2023-01-15T16:09:05.159Z,66.67
2023-01-15T16:11:42.091Z,66.56
2023-01-15T16:14:19.180Z,66.86
2023-01-15T16:16:56.776Z,67.57
2023-01-15T16:19:38.543Z,68.12
2023-01-15T16:22:20.757Z,68.41
2023-01-15T16:25:00.191Z,68.71
2023-01-15T16:27:38.732Z,68.99
2023-01-15T16:30:20.905Z,69.35
2023-01-15T16:33:07.631Z,69.78
2023-01-15T16:35:43.315Z,69.63
2023-01-15T16:38:23.151Z,69.43
2023-01-15T16:40:58.434Z,69.70
2023-01-15T16:43:51.617Z,70.35
2023-01-15T16:46:32.025Z,71.39
2023-01-15T16:49:28.581Z,71.55
2023-01-15T16:52:06.439Z,72.16
2023-01-15T16:54:52.438Z,72.94
2023-01-15T16:57:36.967Z,73.73
2023-01-15T17:00:33.593Z,74.39
2023-01-15T17:03:16.343Z,75.04
2023-01-15T17:05:58.755Z,75.27
2023-01-15T17:08:41.194Z,75.75
2023-01-15T17:11:24.553Z,76.31
2023-01-15T17:14:23.149Z,76.74
2023-01-15T17:17:27.951Z,76.99
2023-01-15T17:20:05.421Z,77.31
2023-01-15T17:22:47.904Z,77.58
2023-01-15T17:25:31.703Z,77.72
2023-01-15T17:28:13.713Z,77.83
2023-01-15T17:30:53.598Z,78.08
2023-01-15T17:33:31.870Z,78.30
2023-01-15T17:36:09.959Z,78.50
2023-01-15T17:38:46.355Z,78.67
2023-01-15T17:41:27.834Z,78.68
2023-01-15T17:44:05.702Z,78.98
2023-01-15T17:46:52.475Z,79.16
2023-01-15T17:49:31.537Z,79.30
2023-01-15T17:52:23.392Z,79.45
2023-01-15T17:55:19.038Z,79.57
2023-01-15T17:58:12.484Z,79.66
2023-01-15T18:01:06.906Z,79.94
2023-01-15T18:04:04.883Z,80.59
2023-01-15T18:06:45.949Z,80.92
2023-01-15T18:09:27.298Z,81.25
2023-01-15T18:12:03.923Z,81.51
2023-01-15T18:14:40.228Z,81.63
2023-01-15T18:17:16.024Z,81.86
2023-01-15T18:19:56.498Z,82.07
2023-01-15T18:22:32.700Z,82.28
2023-01-15T18:25:16.546Z,82.81
2023-01-15T18:27:55.353Z,83.26
2023-01-15T18:30:29.775Z,83.57
2023-01-15T18:33:06.457Z,83.86
2023-01-15T18:35:42.229Z,84.18
2023-01-15T18:38:17.675Z,84.64
2023-01-15T18:40:55.877Z,84.72
2023-01-15T18:44:06.564Z,84.78
2023-01-15T18:46:49.826Z,84.74
2023-01-15T18:49:26.918Z,84.61
2023-01-15T18:52:21.284Z,84.35
2023-01-15T18:54:57.995Z,83.95
2023-01-15T18:57:37.099Z,83.72
2023-01-15T19:00:19.104Z,83.62
2023-01-15T19:02:56.776Z,83.52
2023-01-15T19:05:33.934Z,83.34
2023-01-15T19:08:13.215Z,83.14
2023-01-15T19:10:50.823Z,83.22
2023-01-15T19:13:28.178Z,83.18
2023-01-15T19:16:22.200Z,82.97
2023-01-15T19:19:06.061Z,83.03
2023-01-15T19:21:47.910Z,82.98
2023-01-15T19:24:35.414Z,82.71
2023-01-15T19:27:24.795Z,82.76
2023-01-15T19:30:01.491Z,82.60
2023-01-15T19:32:37.811Z,82.43
2023-01-15T19:35:13.901Z,82.03
2023-01-15T19:37:54.248Z,81.93
2023-01-15T19:40:35.429Z,81.99
2023-01-15T19:43:29.990Z,82.17
2023-01-15T19:46:26.771Z,82.14
2023-01-15T19:49:20.621Z,82.08
2023-01-15T19:52:12.952Z,81.78
2023-01-15T19:55:00.667Z,81.69
2023-01-15T19:57:36.425Z,81.87
2023-01-15T20:00:20.394Z,81.63
2023-01-15T20:02:57.929Z,81.76
2023-01-15T20:05:35.544Z,81.92
2023-01-15T20:08:19.956Z,81.79
2023-01-15T20:11:04.555Z,81.76
2023-01-15T20:13:55.779Z,81.82
2023-01-15T20:16:32.275Z,81.84
2023-01-15T20:19:11.594Z,81.99
2023-01-15T20:21:50.029Z,81.91
2023-01-15T20:24:24.026Z,82.01
2023-01-15T20:26:59.507Z,82.07
2023-01-15T20:29:36.001Z,82.15
2023-01-15T20:32:15.795Z,82.25
2023-01-15T20:34:54.417Z,82.47
2023-01-15T20:37:31.316Z,82.53
2023-01-15T20:40:09.382Z,82.57
2023-01-15T20:43:03.939Z,82.81
2023-01-15T20:45:41.621Z,82.95
2023-01-15T20:48:33.415Z,82.84
2023-01-15T20:51:20.181Z,82.77
2023-01-15T20:53:56.706Z,82.94
2023-01-15T20:56:33.223Z,82.96
2023-01-15T20:59:11.764Z,83.06
2023-01-15T21:01:48.043Z,83.04
2023-01-15T21:04:26.330Z,82.88
2023-01-15T21:07:02.514Z,82.69
2023-01-15T21:09:37.743Z,82.56
2023-01-15T21:12:12.002Z,82.51
2023-01-15T21:14:47.091Z,82.51
2023-01-15T21:17:22.763Z,82.23
2023-01-15T21:19:58.828Z,82.09
2023-01-15T21:22:35.122Z,82.11
2023-01-15T21:25:13.759Z,81.99
2023-01-15T21:27:47.424Z,81.90
2023-01-15T21:30:21.387Z,81.67
2023-01-15T21:32:57.513Z,81.63
2023-01-15T21:35:32.107Z,81.59
2023-01-15T21:38:09.633Z,81.50
2023-01-15T21:40:43.987Z,81.37
2023-01-15T21:43:36.730Z,81.30
2023-01-15T21:46:10.847Z,81.13
2023-01-15T21:48:44.645Z,81.22
2023-01-15T21:51:18.359Z,81.09
2023-01-15T21:53:52.066Z,80.89
2023-01-15T21:56:25.417Z,80.79
2023-01-15T21:58:59.261Z,80.81
2023-01-15T22:01:33.235Z,80.71
2023-01-15T22:04:07.317Z,80.60
2023-01-15T22:06:41.087Z,80.53
2023-01-15T22:09:14.763Z,80.35
2023-01-15T22:11:49.474Z,80.30
2023-01-15T22:14:26.163Z,80.12
2023-01-15T22:17:01.732Z,80.19
2023-01-15T22:19:36.121Z,79.74
2023-01-15T22:22:11.787Z,79.86
2023-01-15T22:24:45.449Z,79.76
2023-01-15T22:27:21.053Z,79.57
2023-01-15T22:29:54.645Z,79.43
2023-01-15T22:32:28.273Z,79.37
2023-01-15T22:35:02.121Z,79.31
2023-01-15T22:37:35.824Z,79.34
2023-01-15T22:40:11.911Z,79.23
2023-01-15T22:42:45.389Z,79.22
2023-01-15T22:45:20.777Z,79.18
2023-01-15T22:47:54.791Z,79.00
2023-01-15T22:50:28.392Z,79.05
2023-01-15T22:53:02.268Z,78.96
2023-01-15T22:55:36.805Z,78.97
2023-01-15T22:58:10.350Z,78.91
2023-01-15T23:00:43.965Z,78.93
2023-01-15T23:03:17.688Z,78.94
2023-01-15T23:05:51.149Z,78.94
2023-01-15T23:08:26.775Z,78.91
2023-01-15T23:11:00.297Z,78.80
2023-01-15T23:13:35.622Z,78.54
2023-01-15T23:16:10.205Z,78.48
2023-01-15T23:18:43.611Z,78.27
2023-01-15T23:21:20.016Z,78.41
2023-01-15T23:23:56.997Z,78.31
2023-01-15T23:26:33.043Z,78.34
2023-01-15T23:29:07.257Z,78.17
2023-01-15T23:31:40.911Z,78.19
2023-01-15T23:34:14.540Z,78.11
2023-01-15T23:36:48.173Z,77.96
2023-01-15T23:39:22.082Z,78.06
2023-01-15T23:42:13.327Z,78.06
2023-01-15T23:45:04.527Z,78.05
2023-01-15T23:47:38.346Z,78.27
2023-01-15T23:50:13.281Z,78.29
2023-01-15T23:52:47.774Z,78.33
2023-01-15T23:55:21.800Z,78.20
2023-01-15T23:57:55.371Z,78.18
